トロント/ピアソン の空港の天気 - METARとTAF

トロント・ピアソン国際空港 ( CYYZ / YYZ ) - カナダ オンタリオ州トロント
飛行場実況気象(Metar)
観測時間08/13 01:00 EDT (08/13 05:00 UTC)
風向・風速北北西 3m/s
視程10km以上
天気現象
なし
気温22℃
湿度69%
気圧1020hPa
METARCYYZ 130500Z 34005KT 15SM SKC 22/16 A3012 RMK SLP200 DENSITY ALT 1400FT
過去の天気等 Google飛行場航空写真 Wunderground天気予報

過去48時間のMETAR

飛行場予報(TAF)
発表時間: 8/12 22:38 EDT (8/13 02:38 UTC)
予報対象時間: 12日23時 EDT ~ 14日2時 EDT
風向・風速不定 2m/s
視程10km以上
少しの雲 雲底高度 7320m
13日2時 EDT ~ 13日4時 EDT に徐々に
風向・風速北 4m/s
13日10時 EDT から
風向・風速東 4m/s
視程10km以上
少しの雲 雲底高度 1520m
13日11時 EDT ~ 13日13時 EDT に徐々に
風向・風速南南東 4m/s
13日20時 EDT ~ 13日22時 EDT に徐々に
風向・風速不定 2m/s
TAF CYYZ 130238Z 1303/1406 VRB03KT P6SM FEW240
BECMG 1306/1308 36007KT
FM131400 09007KT P6SM FEW050
BECMG 1315/1317 16007KT
BECMG 1400/1402 VRB03KT RMK NXT FCST BY 130600Z